Airfield :
LOGIN :

Register | Disclaimer

   EN    FR    IT 

 










Legend :    VFR   Marginal VFR   IFR   Intensive IFR   Very Intensive IFR
Visi :
Ceiling :
>= 8 km
>= 3000ft
5 to 8 km
1000 to 3000 ft
1500m to 5 km
500 to 1000 ft
800 to 1500m
200 to 500 ft
< 800m
< 200 ft
Symbols :   Thunderstorms  Fog  Heavy snow  Heavy precipitations  Wind > 20 kt
SIGMETs :     Misc.  Thunderstorms  Icing  Turbulence  Mountain Waves  Volcanic Ashes







- Airport Elevation : 416 ft
- IATA code : OVD


LEAS - Asturias

CURRENT METAR :
  • 231400Z 07007KT 010V110 CAVOK 18/10 Q1024 NOSIG

EXPIRED METARs :
  • 231330Z 07006KT 030V110 CAVOK 18/10 Q1025 NOSIG
  • 231300Z 05006KT 360V100 CAVOK 17/09 Q1025 NOSIG
  • 231230Z 06005KT 340V120 CAVOK 18/11 Q1025 NOSIG
  • 231200Z 07007KT 030V120 CAVOK 17/10 Q1026 NOSIG
  • 231130Z 08008KT 050V140 CAVOK 17/07 Q1026 NOSIG

TAF TAF LEAS
Valid from the 23 at 09:00 until the 24 at 09:00 UTC


230800Z 2309/2409 22008KT CAVOK TX18/2314Z TN06/2406Z
PROB30
TEMPO 2313/2317 07010KT
PROB40
TEMPO 2400/2407 3000 BR
No reported NOTAMs for that airfield.
1 SIGMET reported for the Madrid FIR (LECM) :
 
Severe mountain waves
LECM SIGMET 2 VALID 231202/231600 LEVA
LECM MADRID FIR/UIR SEV MTW OBS AT 1202Z WI N3849 W00213 - N3709 W00444 - N3657 W00425 - N3808 W00149 - N3849 W00213 SFC/FL360 STNR NC=



MET'MAP, your aeronautical weather chart ! - Copyright ORBIFLY December 2007 - Disclaimer

ORBIFLY MET'MAP TEAM :

Programming & Development : Alexandra Zaïnal
Concept & Development : Baudouin d'Aumeries
Co-Development & Prog : Marc-Olivier Méhu
Technical & hardware support : Manuel Goepfert

Contact : metmap@orbifly.com




SOURCES & CREDITS :

   NOAA